createdAt,value
2022-11-12T00:00:37.220Z,89.30
2022-11-12T00:03:05.189Z,89.20
2022-11-12T00:05:33.206Z,89.20
2022-11-12T00:08:15.118Z,89.10
2022-11-12T00:10:44.469Z,89.10
2022-11-12T00:13:12.630Z,88.90
2022-11-12T00:15:40.083Z,89.00
2022-11-12T00:18:10.248Z,88.90
2022-11-12T00:20:37.664Z,88.80
2022-11-12T00:23:14.940Z,88.80
2022-11-12T00:25:50.523Z,88.60
2022-11-12T00:28:18.001Z,88.60
2022-11-12T00:30:45.283Z,88.60
2022-11-12T00:33:13.501Z,88.60
2022-11-12T00:35:41.707Z,88.40
2022-11-12T00:38:10.408Z,88.20
2022-11-12T00:40:37.859Z,88.10
2022-11-12T00:43:04.905Z,88.20
2022-11-12T00:45:32.412Z,88.10
2022-11-12T00:48:04.759Z,88.00
2022-11-12T00:50:32.400Z,87.90
2022-11-12T00:53:03.366Z,88.00
2022-11-12T00:55:33.331Z,87.80
2022-11-12T00:58:06.086Z,87.90
2022-11-12T01:00:37.395Z,87.90
2022-11-12T01:03:14.031Z,88.00
2022-11-12T01:05:43.797Z,87.80
2022-11-12T01:08:11.101Z,88.00
2022-11-12T01:10:38.204Z,88.10
2022-11-12T01:13:06.034Z,88.20
2022-11-12T01:15:33.433Z,88.30
2022-11-12T01:18:01.300Z,88.60
2022-11-12T01:20:30.968Z,88.60
2022-11-12T01:23:02.297Z,88.70
2022-11-12T01:25:30.115Z,88.60
2022-11-12T01:27:58.288Z,88.80
2022-11-12T01:30:25.650Z,88.80
2022-11-12T01:32:57.116Z,88.80
2022-11-12T01:35:25.169Z,88.90
2022-11-12T01:37:53.361Z,89.00
2022-11-12T01:40:24.036Z,88.90
2022-11-12T01:45:38.087Z,88.80
2022-11-12T01:48:05.559Z,88.70
2022-11-12T01:50:36.501Z,88.70
2022-11-12T01:53:08.663Z,88.60
2022-11-12T01:55:38.601Z,88.30
2022-11-12T01:58:15.032Z,88.30
2022-11-12T02:00:49.259Z,88.30
2022-11-12T02:03:25.490Z,88.20
2022-11-12T02:06:00.989Z,88.10
2022-11-12T02:08:31.219Z,88.10
2022-11-12T02:10:58.587Z,88.00
2022-11-12T02:13:44.549Z,88.00
2022-11-12T02:16:12.754Z,87.90
2022-11-12T02:18:49.042Z,87.80
2022-11-12T02:21:23.110Z,87.70
2022-11-12T02:24:13.817Z,87.70
2022-11-12T02:26:51.399Z,87.60
2022-11-12T02:29:18.742Z,87.40
2022-11-12T02:31:46.431Z,87.50
2022-11-12T02:34:16.377Z,87.50
2022-11-12T02:36:47.012Z,87.40
2022-11-12T02:39:16.846Z,87.40
2022-11-12T02:41:53.493Z,87.50
2022-11-12T02:44:20.632Z,87.50
2022-11-12T02:46:47.855Z,87.70
2022-11-12T02:49:15.308Z,87.80
2022-11-12T02:51:47.562Z,87.80
2022-11-12T02:54:14.788Z,87.90
2022-11-12T02:56:52.574Z,87.90
2022-11-12T02:59:19.815Z,88.00
2022-11-12T03:01:49.176Z,88.00
2022-11-12T03:04:20.165Z,88.00
2022-11-12T03:06:47.485Z,88.10
2022-11-12T03:09:14.714Z,88.10
2022-11-12T03:11:44.326Z,88.10
2022-11-12T03:14:18.142Z,88.10
2022-11-12T03:16:50.558Z,88.10
2022-11-12T03:19:21.877Z,88.20
2022-11-12T03:21:49.416Z,88.20
2022-11-12T03:24:22.985Z,88.30
2022-11-12T03:26:50.465Z,88.20
2022-11-12T03:29:18.101Z,88.20
2022-11-12T03:31:54.404Z,88.20
2022-11-12T03:34:24.760Z,88.10
2022-11-12T03:36:51.820Z,88.10
2022-11-12T03:39:19.136Z,88.30
2022-11-12T03:41:46.374Z,88.10
2022-11-12T03:44:27.418Z,88.10
2022-11-12T03:46:58.237Z,88.20
2022-11-12T03:49:25.515Z,88.30
2022-11-12T03:51:59.542Z,88.30
2022-11-12T03:54:39.130Z,88.60
2022-11-12T03:57:11.194Z,88.60
2022-11-12T03:59:38.820Z,88.90
2022-11-12T04:02:14.803Z,89.00
2022-11-12T04:05:06.535Z,89.10
2022-11-12T04:07:55.402Z,89.10
2022-11-12T04:10:22.697Z,89.20
2022-11-12T04:13:08.763Z,89.30
2022-11-12T04:15:35.882Z,89.50
2022-11-12T04:18:21.593Z,89.50
2022-11-12T04:21:10.833Z,89.50
2022-11-12T04:23:40.547Z,89.50
2022-11-12T04:26:24.082Z,89.60
2022-11-12T04:29:09.882Z,89.50
2022-11-12T04:31:40.941Z,89.60
2022-11-12T04:34:38.545Z,89.50
2022-11-12T04:37:10.303Z,89.50
2022-11-12T04:39:52.291Z,89.60
2022-11-12T04:42:38.613Z,89.70
2022-11-12T04:45:15.876Z,89.80
2022-11-12T04:47:51.655Z,89.80
2022-11-12T04:50:19.750Z,90.00
2022-11-12T04:52:49.041Z,90.20
2022-11-12T04:55:21.875Z,90.40
2022-11-12T04:57:49.359Z,90.50
2022-11-12T05:00:16.817Z,90.60
2022-11-12T05:02:43.865Z,90.60
2022-11-12T05:05:11.025Z,90.70
2022-11-12T05:07:38.468Z,90.80
2022-11-12T05:10:07.222Z,91.00
2022-11-12T05:12:37.638Z,91.00
2022-11-12T05:15:11.796Z,91.00
2022-11-12T05:17:55.453Z,91.00
2022-11-12T05:20:23.107Z,90.90
2022-11-12T05:23:05.565Z,91.10
2022-11-12T05:25:37.553Z,90.90
2022-11-12T05:28:06.857Z,91.00
2022-11-12T05:30:35.217Z,91.00
2022-11-12T05:33:02.823Z,91.00
2022-11-12T05:35:30.152Z,90.90
2022-11-12T05:37:58.464Z,90.60
2022-11-12T05:40:26.004Z,90.60
2022-11-12T05:43:01.742Z,90.40
2022-11-12T05:45:32.164Z,90.30
2022-11-12T05:47:59.425Z,89.90
2022-11-12T05:50:34.956Z,89.90
2022-11-12T05:53:06.884Z,89.50
2022-11-12T05:55:40.181Z,89.20
2022-11-12T05:58:12.949Z,89.20
2022-11-12T06:00:45.683Z,89.00
2022-11-12T06:03:15.325Z,88.80
2022-11-12T06:05:50.770Z,88.80
2022-11-12T06:08:20.427Z,88.60
2022-11-12T06:10:51.840Z,88.50
2022-11-12T06:13:23.970Z,88.40
2022-11-12T06:15:58.201Z,88.40
2022-11-12T06:18:26.372Z,88.10
2022-11-12T06:21:17.026Z,88.00
2022-11-12T06:23:46.828Z,88.00
2022-11-12T06:26:22.591Z,87.80
2022-11-12T06:28:50.366Z,87.70
2022-11-12T06:31:22.176Z,87.60
2022-11-12T06:33:52.739Z,87.60
2022-11-12T06:36:22.041Z,87.60
2022-11-12T06:38:55.162Z,87.50
2022-11-12T06:41:30.134Z,87.50
2022-11-12T06:43:59.678Z,87.60
2022-11-12T06:46:26.989Z,87.30
2022-11-12T06:48:57.991Z,87.30
2022-11-12T06:51:40.220Z,87.20
2022-11-12T06:54:26.823Z,87.00
2022-11-12T06:56:53.867Z,86.90
2022-11-12T06:59:21.118Z,86.70
2022-11-12T07:01:56.563Z,86.50
2022-11-12T07:04:25.505Z,86.30
2022-11-12T07:07:00.016Z,86.30
2022-11-12T07:09:27.269Z,86.20
2022-11-12T07:11:54.366Z,86.10
2022-11-12T07:14:22.006Z,86.00
2022-11-12T07:16:49.209Z,85.90
2022-11-12T07:19:16.521Z,85.60
2022-11-12T07:21:47.270Z,85.60
2022-11-12T07:24:24.213Z,85.40
2022-11-12T07:26:54.431Z,85.30
2022-11-12T07:29:42.734Z,85.30
2022-11-12T07:32:23.355Z,85.30
2022-11-12T07:34:54.209Z,85.30
2022-11-12T07:37:30.280Z,85.20
2022-11-12T07:39:57.581Z,85.30
2022-11-12T07:42:27.081Z,85.20
2022-11-12T07:45:04.600Z,85.30
2022-11-12T07:47:32.081Z,85.30
2022-11-12T07:50:00.528Z,85.20
2022-11-12T07:52:30.144Z,85.20
2022-11-12T07:55:01.211Z,85.10
2022-11-12T07:57:34.171Z,85.10
2022-11-12T08:00:05.737Z,85.20
2022-11-12T08:02:34.927Z,85.20
2022-11-12T08:05:02.589Z,85.20
2022-11-12T08:07:32.754Z,85.10
2022-11-12T08:10:04.900Z,85.10
2022-11-12T08:12:32.214Z,84.90
2022-11-12T08:15:05.226Z,85.00
2022-11-12T08:17:32.680Z,85.00
2022-11-12T08:23:08.220Z,84.90
2022-11-12T08:25:38.266Z,84.80
2022-11-12T08:28:05.681Z,84.70
2022-11-12T08:30:33.541Z,84.70
2022-11-12T08:33:10.427Z,84.60
2022-11-12T08:35:55.854Z,84.70
2022-11-12T08:38:26.577Z,84.80
2022-11-12T08:40:54.862Z,84.60
2022-11-12T08:43:25.787Z,84.60
2022-11-12T08:45:53.751Z,84.50
2022-11-12T08:48:33.168Z,84.50
2022-11-12T08:51:03.000Z,84.60
2022-11-12T08:53:36.450Z,84.00
2022-11-12T08:56:09.526Z,84.10
2022-11-12T08:58:40.786Z,84.10
2022-11-12T09:01:11.978Z,84.60
2022-11-12T09:03:52.527Z,84.70
2022-11-12T09:06:23.187Z,84.10
2022-11-12T09:08:58.229Z,84.70
2022-11-12T09:11:28.809Z,84.10
2022-11-12T09:13:58.927Z,84.00
2022-11-12T09:16:29.266Z,84.10
2022-11-12T09:19:05.961Z,83.90
2022-11-12T09:21:40.688Z,83.70
2022-11-12T09:24:08.357Z,83.80
2022-11-12T09:26:35.528Z,83.70
2022-11-12T09:29:05.696Z,83.60
2022-11-12T09:31:33.732Z,83.50
2022-11-12T09:34:05.941Z,83.40
2022-11-12T09:36:56.350Z,83.20
2022-11-12T09:39:27.453Z,83.10
2022-11-12T09:42:04.256Z,83.00
2022-11-12T09:44:38.113Z,82.80
2022-11-12T09:47:33.925Z,82.60
2022-11-12T09:50:31.201Z,82.30
2022-11-12T09:53:23.724Z,82.10
2022-11-12T09:55:57.644Z,81.80
2022-11-12T09:58:28.619Z,81.70
2022-11-12T10:01:00.199Z,81.60
2022-11-12T10:04:06.457Z,81.30
2022-11-12T10:06:51.026Z,80.80
2022-11-12T10:09:30.178Z,80.60
2022-11-12T10:12:34.092Z,80.30
2022-11-12T10:15:50.424Z,80.20
2022-11-12T10:18:54.348Z,79.90
2022-11-12T10:21:35.162Z,80.00
2022-11-12T10:26:53.985Z,79.80
2022-11-12T10:29:57.143Z,79.70
2022-11-12T10:32:32.280Z,79.30
2022-11-12T10:34:59.730Z,79.30
2022-11-12T10:37:50.004Z,79.20
2022-11-12T10:40:35.195Z,79.40
2022-11-12T10:43:21.172Z,79.50
2022-11-12T10:45:50.424Z,79.60
2022-11-12T10:48:38.242Z,79.80
2022-11-12T10:51:24.294Z,80.00
2022-11-12T10:53:52.083Z,79.80
2022-11-12T10:56:30.332Z,79.70
2022-11-12T10:59:22.589Z,79.80
2022-11-12T11:02:01.071Z,79.70
2022-11-12T11:04:51.847Z,79.60
2022-11-12T11:07:26.490Z,79.30
2022-11-12T11:09:59.297Z,79.30
2022-11-12T11:12:38.447Z,79.30
2022-11-12T11:15:40.899Z,79.30
2022-11-12T11:18:11.791Z,79.10
2022-11-12T11:20:49.408Z,79.00
2022-11-12T11:23:21.227Z,79.00
2022-11-12T11:25:57.524Z,78.60
2022-11-12T11:28:48.060Z,78.70
2022-11-12T11:31:40.267Z,78.60
2022-11-12T11:34:21.688Z,78.50
2022-11-12T11:37:17.282Z,78.50
2022-11-12T11:39:59.715Z,78.30
2022-11-12T11:42:44.871Z,78.20
2022-11-12T11:45:56.847Z,78.00
2022-11-12T11:48:52.467Z,78.20
2022-11-12T11:51:38.837Z,78.10
2022-11-12T11:54:16.015Z,78.00
2022-11-12T11:56:45.323Z,77.60
2022-11-12T11:59:34.819Z,76.70
2022-11-12T12:02:36.003Z,76.90
2022-11-12T12:05:46.152Z,77.10
2022-11-12T12:08:26.673Z,77.20
2022-11-12T12:11:15.275Z,77.30
2022-11-12T12:14:00.284Z,77.60
2022-11-12T12:16:41.836Z,77.80
2022-11-12T12:19:52.441Z,78.00
2022-11-12T12:22:43.037Z,78.20
2022-11-12T12:25:18.576Z,78.40
2022-11-12T12:28:04.573Z,78.60
2022-11-12T12:30:41.824Z,78.60
2022-11-12T12:33:46.930Z,78.90
2022-11-12T12:36:29.906Z,78.90
2022-11-12T12:39:26.297Z,79.10
2022-11-12T12:42:10.028Z,79.20
2022-11-12T12:45:02.122Z,79.30
2022-11-12T12:47:41.834Z,79.10
2022-11-12T12:50:16.515Z,79.10
2022-11-12T12:53:17.641Z,79.20
2022-11-12T12:55:48.771Z,79.10
2022-11-12T12:58:29.494Z,79.30
2022-11-12T13:01:02.137Z,79.40
2022-11-12T13:04:05.417Z,79.50
2022-11-12T13:06:35.029Z,79.50
2022-11-12T13:09:27.340Z,79.70
2022-11-12T13:12:06.166Z,80.00
2022-11-12T13:14:43.736Z,80.30
2022-11-12T13:17:12.370Z,80.60
2022-11-12T13:19:44.794Z,80.90
2022-11-12T13:22:26.327Z,81.20
2022-11-12T13:25:11.390Z,81.20
2022-11-12T13:27:50.399Z,81.10
2022-11-12T13:30:23.508Z,81.40
2022-11-12T13:32:51.314Z,81.70
2022-11-12T13:35:39.988Z,81.80
2022-11-12T13:38:13.224Z,82.10
2022-11-12T13:40:49.583Z,82.30
2022-11-12T13:43:25.502Z,82.50
2022-11-12T13:45:52.935Z,82.90
2022-11-12T13:48:29.502Z,83.10
2022-11-12T13:51:02.218Z,83.50
2022-11-12T13:53:58.173Z,84.40
2022-11-12T13:56:36.278Z,84.70
2022-11-12T13:59:25.132Z,84.90
2022-11-12T14:02:07.200Z,85.20
2022-11-12T14:04:37.726Z,85.40
2022-11-12T14:07:30.922Z,85.90
2022-11-12T14:10:20.773Z,86.00
2022-11-12T14:13:30.815Z,86.30
2022-11-12T14:16:26.685Z,86.60
2022-11-12T14:19:32.539Z,87.00
2022-11-12T14:22:17.089Z,87.10
2022-11-12T14:24:54.499Z,87.70
2022-11-12T14:27:44.653Z,88.00
2022-11-12T14:30:16.661Z,88.20
2022-11-12T14:32:50.668Z,88.20
2022-11-12T14:35:38.198Z,88.40
2022-11-12T14:38:15.952Z,88.70
2022-11-12T14:40:59.718Z,89.00
2022-11-12T14:43:34.945Z,89.10
2022-11-12T14:46:04.319Z,89.40
2022-11-12T14:48:58.751Z,89.60
2022-11-12T14:51:32.423Z,89.50
2022-11-12T14:54:12.177Z,89.80
2022-11-12T14:56:49.163Z,89.80
2022-11-12T14:59:17.127Z,90.00
2022-11-12T15:02:50.228Z,90.10
2022-11-12T15:05:25.342Z,90.40
2022-11-12T15:08:07.405Z,90.50
2022-11-12T15:10:44.229Z,90.80
2022-11-12T15:13:21.243Z,91.00
2022-11-12T15:16:09.843Z,91.00
2022-11-12T15:19:01.475Z,91.00
2022-11-12T15:21:31.473Z,91.20
2022-11-12T15:24:27.261Z,91.50
2022-11-12T15:26:57.327Z,91.70
2022-11-12T15:29:39.977Z,91.90
2022-11-12T15:32:13.683Z,91.90
2022-11-12T15:34:41.673Z,92.20
2022-11-12T15:37:12.987Z,92.60
2022-11-12T15:39:53.243Z,92.80
2022-11-12T15:42:38.634Z,92.80
2022-11-12T15:45:16.298Z,92.90
2022-11-12T15:47:44.447Z,93.20
2022-11-12T15:50:32.233Z,93.80
2022-11-12T15:53:03.779Z,93.10
2022-11-12T15:55:35.209Z,93.70
2022-11-12T15:58:11.721Z,93.80
2022-11-12T16:00:45.777Z,94.00
2022-11-12T16:03:16.935Z,94.10
2022-11-12T16:05:46.340Z,94.40
2022-11-12T16:08:18.838Z,94.40
2022-11-12T16:10:48.069Z,94.60
2022-11-12T16:13:31.571Z,94.60
2022-11-12T16:15:59.385Z,94.80
2022-11-12T16:18:26.752Z,94.80
2022-11-12T16:20:54.407Z,94.90
2022-11-12T16:23:22.113Z,94.80
2022-11-12T16:25:49.618Z,95.00
2022-11-12T16:28:24.078Z,95.00
2022-11-12T16:30:51.432Z,94.90
2022-11-12T16:33:29.136Z,95.00
2022-11-12T16:36:00.074Z,95.10
2022-11-12T16:38:27.498Z,95.20
2022-11-12T16:40:58.198Z,95.20
2022-11-12T16:43:37.034Z,95.10
2022-11-12T16:46:15.584Z,95.00
2022-11-12T16:48:48.527Z,95.20
2022-11-12T16:51:19.558Z,95.40
2022-11-12T16:53:47.297Z,95.20
2022-11-12T16:56:27.102Z,95.20
2022-11-12T16:58:56.853Z,95.30
2022-11-12T17:01:33.796Z,95.40
2022-11-12T17:04:04.151Z,95.60
2022-11-12T17:06:39.605Z,95.50
2022-11-12T17:09:15.533Z,95.60
2022-11-12T17:12:19.869Z,96.00
2022-11-12T17:14:50.903Z,95.80
2022-11-12T17:17:22.909Z,96.00
2022-11-12T17:19:50.449Z,96.20
2022-11-12T17:22:20.516Z,95.90
2022-11-12T17:24:50.462Z,96.10
2022-11-12T17:27:17.574Z,96.20
2022-11-12T17:29:45.438Z,96.30
2022-11-12T17:32:16.407Z,96.30
2022-11-12T17:34:54.099Z,96.40
2022-11-12T17:37:21.257Z,96.40
2022-11-12T17:39:48.593Z,96.40
2022-11-12T17:42:25.288Z,96.50
2022-11-12T17:44:52.883Z,96.40
2022-11-12T17:47:29.717Z,96.40
2022-11-12T17:50:10.558Z,96.30
2022-11-12T17:52:40.178Z,96.30
2022-11-12T17:55:07.961Z,96.60
2022-11-12T17:57:35.029Z,96.80
2022-11-12T18:00:02.573Z,96.60
2022-11-12T18:02:32.966Z,96.80
2022-11-12T18:05:00.113Z,96.80
2022-11-12T18:07:27.376Z,96.80
2022-11-12T18:09:55.093Z,96.70
2022-11-12T18:15:04.466Z,96.80
2022-11-12T18:17:36.361Z,96.90
2022-11-12T18:20:03.901Z,96.80
2022-11-12T18:25:13.224Z,96.80
2022-11-12T18:27:53.254Z,96.90
2022-11-12T18:30:20.375Z,97.00
2022-11-12T18:32:47.740Z,96.90
2022-11-12T18:35:29.788Z,97.00
2022-11-12T18:37:58.985Z,97.10
2022-11-12T18:40:29.375Z,97.00
2022-11-12T18:42:56.655Z,97.00
2022-11-12T18:45:23.683Z,97.10
2022-11-12T18:47:53.720Z,97.20
2022-11-12T18:50:21.006Z,97.10
2022-11-12T18:52:53.612Z,97.00
2022-11-12T18:55:20.732Z,97.10
2022-11-12T18:57:50.342Z,97.20
2022-11-12T19:00:17.937Z,97.30
2022-11-12T19:02:46.667Z,97.60
2022-11-12T19:05:14.257Z,97.40
2022-11-12T19:07:41.783Z,97.40
2022-11-12T19:10:14.600Z,97.20
2022-11-12T19:12:42.647Z,97.30
2022-11-12T19:15:10.383Z,97.20
2022-11-12T19:17:37.609Z,97.20
2022-11-12T19:20:05.219Z,97.40
2022-11-12T19:22:32.473Z,97.40
2022-11-12T19:25:06.677Z,97.30
2022-11-12T19:27:34.064Z,97.40
2022-11-12T19:30:04.198Z,97.40
2022-11-12T19:32:31.892Z,97.30
2022-11-12T19:35:01.911Z,97.20
2022-11-12T19:37:34.768Z,97.30
2022-11-12T19:40:03.271Z,97.20
2022-11-12T19:42:32.924Z,97.10
2022-11-12T19:45:03.058Z,97.20
2022-11-12T19:47:31.562Z,97.10
2022-11-12T19:49:59.119Z,97.20
2022-11-12T19:52:26.460Z,97.10
2022-11-12T19:54:56.917Z,97.00
2022-11-12T19:57:24.094Z,96.80
2022-11-12T19:59:51.275Z,96.90
2022-11-12T20:02:21.473Z,96.90
2022-11-12T20:04:48.522Z,96.90
2022-11-12T20:07:19.507Z,96.80
2022-11-12T20:09:49.981Z,96.90
2022-11-12T20:12:25.437Z,96.80
2022-11-12T20:15:04.360Z,96.80
2022-11-12T20:17:33.636Z,96.80
2022-11-12T20:20:05.995Z,96.80
2022-11-12T20:22:33.902Z,97.00
2022-11-12T20:25:01.887Z,96.90
2022-11-12T20:27:30.662Z,96.90
2022-11-12T20:29:57.694Z,97.00
2022-11-12T20:32:29.670Z,96.90
2022-11-12T20:34:59.849Z,96.80
2022-11-12T20:37:30.865Z,96.80
2022-11-12T20:39:57.987Z,96.80
2022-11-12T20:42:27.959Z,96.90
2022-11-12T20:44:55.270Z,96.80
2022-11-12T20:47:24.633Z,96.90
2022-11-12T20:49:51.911Z,96.80
2022-11-12T20:52:19.776Z,96.90
2022-11-12T20:54:46.832Z,96.90
2022-11-12T20:57:14.493Z,97.00
2022-11-12T20:59:44.114Z,96.90
2022-11-12T21:02:13.571Z,96.80
2022-11-12T21:04:40.860Z,96.90
2022-11-12T21:07:13.055Z,96.90
2022-11-12T21:09:48.435Z,96.90
2022-11-12T21:12:15.815Z,96.90
2022-11-12T21:14:47.537Z,97.00
2022-11-12T21:17:21.276Z,97.20
2022-11-12T21:19:48.589Z,97.10
2022-11-12T21:22:22.890Z,97.00
2022-11-12T21:24:50.038Z,97.30
2022-11-12T21:27:19.212Z,97.10
2022-11-12T21:29:46.574Z,97.20
2022-11-12T21:32:15.578Z,97.20
2022-11-12T21:34:46.905Z,97.30
2022-11-12T21:37:16.443Z,97.30
2022-11-12T21:39:49.455Z,97.40
2022-11-12T21:42:21.021Z,97.40
2022-11-12T21:44:48.306Z,97.60
2022-11-12T21:47:22.232Z,97.60
2022-11-12T21:49:49.450Z,97.70
2022-11-12T21:52:41.737Z,97.60
2022-11-12T21:55:09.091Z,97.70
2022-11-12T21:57:36.175Z,97.80
2022-11-12T22:00:34.509Z,97.90
2022-11-12T22:03:00.977Z,98.20
2022-11-12T22:05:28.340Z,98.10
2022-11-12T22:07:56.048Z,98.10
2022-11-12T22:10:29.683Z,98.30
2022-11-12T22:13:25.383Z,98.30
2022-11-12T22:15:47.348Z,98.30
2022-11-12T22:18:15.561Z,98.30
2022-11-12T22:20:58.453Z,98.40
2022-11-12T22:23:29.600Z,98.40
2022-11-12T22:25:58.023Z,98.60
2022-11-12T22:28:27.131Z,98.70
2022-11-12T22:30:57.513Z,98.70
2022-11-12T22:33:34.082Z,98.60
2022-11-12T22:36:03.252Z,98.60
2022-11-12T22:38:44.596Z,98.70
2022-11-12T22:41:42.198Z,98.70
2022-11-12T22:44:14.588Z,98.60
2022-11-12T22:46:42.779Z,98.70
2022-11-12T22:49:10.001Z,98.70
2022-11-12T22:51:39.938Z,98.60
2022-11-12T22:54:10.799Z,98.70
2022-11-12T22:56:40.094Z,98.70
2022-11-12T22:59:14.692Z,98.60
2022-11-12T23:01:43.347Z,98.50
2022-11-12T23:04:13.698Z,98.60
2022-11-12T23:06:41.011Z,98.60
2022-11-12T23:09:08.679Z,98.60
2022-11-12T23:11:37.924Z,98.60
2022-11-12T23:14:05.347Z,98.50
2022-11-12T23:16:33.161Z,98.60
2022-11-12T23:19:00.587Z,98.70
2022-11-12T23:21:33.882Z,98.60
2022-11-12T23:24:01.468Z,98.50
2022-11-12T23:26:33.766Z,98.60
2022-11-12T23:29:03.127Z,98.80
2022-11-12T23:31:32.761Z,98.80
2022-11-12T23:34:01.518Z,98.80
2022-11-12T23:36:30.677Z,98.70
2022-11-12T23:39:01.841Z,98.90
2022-11-12T23:41:29.327Z,98.90
2022-11-12T23:43:57.670Z,99.10
2022-11-12T23:46:27.405Z,99.00
2022-11-12T23:48:54.636Z,99.10
2022-11-12T23:51:29.863Z,99.00
2022-11-12T23:53:59.922Z,98.80
2022-11-12T23:56:29.620Z,98.70
2022-11-12T23:58:58.533Z,98.70
